Terminal Aerodrome Forecast
Issued by NWS Paducah, KY

Home | Current Version | Previous Version | Text Only | Print | Product List | Glossary On
Versions: 1 2 3 4 5 6 7 8 9 10 11 12 13 14 15 16 17 18 19 20 21
000
FTUS43 KPAH 181700
TAFEVV
TAF
KEVV 181720Z 1818/1918 02004KT P6SM SCT015 OVC050
      TEMPO 1818/1822 5SM BR OVC015
     FM182300 03002KT P6SM OVC020
      TEMPO 1908/1912 5SM BR
     FM191500 04004KT P6SM BKN025=

USA.gov is the U.S. government's official web portal to all federal, state and local government web resources and services.